Time;durP1;ratioP1;P1;durP2;ratioP2;P2;SDS_P1;SDS_P2;PMS_P1;PMS_P2;Temp;Humidity;BMP_temperature;BMP_pressure;BME280_temperature;BME280_humidity;BME280_pressure;Samples;Min_cycle;Max_cycle;Signal;HPM_P1;HPM_P2
2023/04/27 00:00:31;;;;;;;4.20;2.80;;;6.70;99.90;;;;;;2073884;28;20785;-66
2023/04/27 00:01:32;;;;;;;4.57;2.70;;;6.80;99.90;;;;;;2083035;28;20268;-67
2023/04/27 00:02:32;;;;;;;4.97;3.10;;;6.70;99.90;;;;;;2078968;28;20237;-68
2023/04/27 00:03:33;;;;;;;4.53;2.77;;;6.80;99.90;;;;;;2076459;28;20232;-66
2023/04/27 00:04:34;;;;;;;6.23;3.23;;;6.80;99.90;;;;;;2084149;28;20809;-67
2023/04/27 00:05:37;;;;;;;4.77;3.20;;;6.80;99.90;;;;;;2083587;28;20256;-67
2023/04/27 00:06:38;;;;;;;3.85;2.92;;;6.60;99.90;;;;;;2075444;28;20684;-66
2023/04/27 00:07:40;;;;;;;5.47;2.40;;;6.60;99.90;;;;;;2076090;28;20231;-66
2023/04/27 00:08:41;;;;;;;3.93;2.93;;;6.50;99.90;;;;;;2092574;28;20234;-66
2023/04/27 00:09:42;;;;;;;3.85;2.80;;;6.60;99.90;;;;;;2083805;28;20471;-67
2023/04/27 00:10:43;;;;;;;4.13;2.90;;;6.60;99.90;;;;;;2083767;28;20232;-67
2023/04/27 00:11:44;;;;;;;4.60;2.63;;;6.70;99.90;;;;;;2074645;28;20265;-66
2023/04/27 00:12:44;;;;;;;4.97;2.43;;;6.80;99.90;;;;;;2072231;28;20282;-66
2023/04/27 00:13:45;;;;;;;3.80;2.30;;;6.80;99.90;;;;;;2083753;28;20258;-67
2023/04/27 00:14:46;;;;;;;3.67;2.50;;;6.90;99.90;;;;;;2075268;28;20863;-67
2023/04/27 00:15:48;;;;;;;7.60;3.10;;;6.90;99.90;;;;;;2086933;28;20684;-67
2023/04/27 00:16:49;;;;;;;4.13;2.60;;;7.00;99.90;;;;;;2089857;28;20260;-67
2023/04/27 00:17:52;;;;;;;3.28;2.28;;;7.00;99.90;;;;;;2096217;28;20227;-68
2023/04/27 00:18:54;;;;;;;4.22;2.67;;;7.00;99.90;;;;;;2075447;28;20260;-68
2023/04/27 00:19:55;;;;;;;4.88;3.10;;;7.00;99.90;;;;;;2071959;28;20278;-68
2023/04/27 00:20:56;;;;;;;3.87;3.00;;;7.00;99.90;;;;;;2088158;28;20638;-67
2023/04/27 00:21:58;;;;;;;3.97;3.08;;;7.00;99.90;;;;;;2079026;28;20226;-67
2023/04/27 00:23:00;;;;;;;3.67;2.55;;;7.00;99.90;;;;;;2079349;28;20236;-67
2023/04/27 00:24:01;;;;;;;6.10;2.92;;;7.00;99.90;;;;;;2085350;28;20227;-68
2023/04/27 00:25:01;;;;;;;3.57;2.60;;;7.00;99.90;;;;;;2076738;28;20263;-68
2023/04/27 00:26:02;;;;;;;3.57;2.70;;;7.00;99.90;;;;;;2078294;28;20196;-68
2023/04/27 00:27:04;;;;;;;4.77;2.80;;;7.10;99.90;;;;;;2086618;28;20579;-68
2023/04/27 00:28:05;;;;;;;4.10;2.78;;;7.10;99.90;;;;;;2086986;28;20425;-67
2023/04/27 00:29:06;;;;;;;5.03;2.63;;;7.20;99.90;;;;;;2078699;28;20205;-69
2023/04/27 00:30:07;;;;;;;4.00;2.70;;;7.10;99.90;;;;;;2073815;28;20193;-67
2023/04/27 00:31:09;;;;;;;4.18;2.60;;;7.00;99.90;;;;;;2078743;28;20562;-68
2023/04/27 00:32:13;;;;;;;5.65;2.88;;;6.90;99.90;;;;;;2086254;28;20204;-67
2023/04/27 00:33:15;;;;;;;6.15;2.75;;;7.00;99.90;;;;;;2078861;28;20470;-67
2023/04/27 00:34:17;;;;;;;4.70;2.33;;;7.00;99.90;;;;;;2079238;28;20585;-67
2023/04/27 00:35:18;;;;;;;2.50;2.13;;;7.00;99.90;;;;;;2089384;28;20218;-67
2023/04/27 00:36:19;;;;;;;5.43;2.50;;;7.10;99.90;;;;;;2087368;28;20192;-68
2023/04/27 00:37:20;;;;;;;5.03;2.70;;;7.10;99.90;;;;;;2087631;28;20186;-68
2023/04/27 00:38:20;;;;;;;5.13;2.63;;;7.10;99.90;;;;;;2087542;28;20387;-67
2023/04/27 00:39:21;;;;;;;4.00;2.80;;;7.20;99.90;;;;;;2092866;28;20207;-67
2023/04/27 00:40:23;;;;;;;4.10;2.83;;;7.20;99.90;;;;;;2080304;28;20231;-67
2023/04/27 00:41:24;;;;;;;3.83;2.70;;;7.20;99.90;;;;;;2076941;28;20236;-68
2023/04/27 00:42:25;;;;;;;3.83;2.70;;;7.10;99.90;;;;;;2087235;28;20211;-68
2023/04/27 00:43:27;;;;;;;4.63;2.70;;;7.20;99.90;;;;;;2091119;28;20232;-67
2023/04/27 00:44:27;;;;;;;4.47;2.60;;;7.20;99.90;;;;;;2078569;28;20605;-67
2023/04/27 00:45:29;;;;;;;4.73;2.60;;;7.20;99.90;;;;;;2070732;28;20229;-67
2023/04/27 00:46:30;;;;;;;3.83;2.47;;;7.20;99.90;;;;;;2069714;28;20228;-68
2023/04/27 00:47:32;;;;;;;4.22;2.60;;;7.20;99.90;;;;;;2079372;28;20278;-68
2023/04/27 00:48:32;;;;;;;3.92;2.67;;;7.20;99.90;;;;;;2089186;28;20220;-68
2023/04/27 00:49:33;;;;;;;6.67;2.80;;;7.10;99.90;;;;;;2088383;28;20472;-67
2023/04/27 00:50:34;;;;;;;4.63;2.90;;;7.10;99.90;;;;;;2092805;28;20736;-68
2023/04/27 00:51:35;;;;;;;3.60;2.67;;;7.10;99.90;;;;;;2095654;28;20223;-67
2023/04/27 00:52:37;;;;;;;5.17;2.80;;;6.90;99.90;;;;;;2086684;28;20219;-67
2023/04/27 00:53:38;;;;;;;4.53;2.75;;;6.80;99.90;;;;;;2088303;28;20293;-67
2023/04/27 00:54:38;;;;;;;5.75;2.70;;;6.80;99.90;;;;;;2079550;28;20224;-66
2023/04/27 00:55:39;;;;;;;4.13;3.33;;;6.80;99.90;;;;;;2070763;28;20747;-67
2023/04/27 00:56:42;;;;;;;3.70;2.87;;;6.80;99.90;;;;;;2061592;28;20226;-67
2023/04/27 00:57:44;;;;;;;3.60;2.85;;;6.90;99.90;;;;;;2069079;28;20221;-67
2023/04/27 00:58:46;;;;;;;4.45;2.67;;;6.90;99.90;;;;;;2086312;28;20223;-67
2023/04/27 00:59:47;;;;;;;5.13;2.95;;;6.90;99.90;;;;;;2094885;28;20779;-67
2023/04/27 01:00:47;;;;;;;3.27;2.60;;;7.00;99.90;;;;;;2092469;28;20227;-68
2023/04/27 01:01:49;;;;;;;6.10;2.67;;;6.90;99.90;;;;;;2096471;28;20665;-67
2023/04/27 01:02:51;;;;;;;4.22;2.75;;;6.90;99.90;;;;;;2075559;28;20347;-67
2023/04/27 01:03:52;;;;;;;4.35;2.22;;;7.00;99.90;;;;;;2066614;28;20231;-67
2023/04/27 01:04:54;;;;;;;4.87;2.57;;;7.00;99.90;;;;;;2088446;28;20708;-67
2023/04/27 01:05:55;;;;;;;4.47;2.65;;;7.00;99.90;;;;;;2089910;28;20224;-67
2023/04/27 01:06:56;;;;;;;2.72;2.10;;;7.00;99.90;;;;;;2089362;28;20656;-67
2023/04/27 01:07:57;;;;;;;3.23;2.30;;;7.00;99.90;;;;;;2090323;28;20224;-67
2023/04/27 01:08:57;;;;;;;3.60;2.73;;;7.10;99.90;;;;;;2097818;28;20230;-68
2023/04/27 01:09:58;;;;;;;3.70;2.80;;;7.20;99.90;;;;;;2088735;28;20718;-67
2023/04/27 01:10:59;;;;;;;3.53;2.90;;;7.30;99.90;;;;;;2097610;28;20656;-67
2023/04/27 01:12:00;;;;;;;5.13;2.63;;;7.30;99.90;;;;;;2097730;28;20282;-67
2023/04/27 01:13:02;;;;;;;4.15;2.80;;;7.30;99.90;;;;;;2093522;28;20228;-67
2023/04/27 01:14:05;;;;;;;4.15;2.30;;;7.40;99.90;;;;;;2093014;28;20214;-68
2023/04/27 01:15:08;;;;;;;4.68;2.72;;;7.30;99.90;;;;;;2092263;28;20835;-68
2023/04/27 01:16:09;;;;;;;3.75;3.03;;;7.30;99.90;;;;;;2080159;28;20208;-67
2023/04/27 01:17:10;;;;;;;2.77;2.50;;;7.20;99.90;;;;;;2079969;28;20563;-67
2023/04/27 01:18:11;;;;;;;3.75;2.67;;;7.20;99.90;;;;;;2093164;28;20270;-67
2023/04/27 01:19:12;;;;;;;5.07;2.57;;;7.20;99.90;;;;;;2093697;28;20192;-66
2023/04/27 01:20:13;;;;;;;3.40;2.50;;;7.30;99.90;;;;;;2090302;28;20188;-67
2023/04/27 01:21:16;;;;;;;4.60;2.75;;;7.30;99.90;;;;;;2092383;28;20187;-67
2023/04/27 01:22:17;;;;;;;2.90;2.60;;;7.30;99.90;;;;;;2086402;28;20274;-67
2023/04/27 01:23:17;;;;;;;3.95;2.60;;;7.20;99.90;;;;;;2093543;28;20196;-66
2023/04/27 01:24:18;;;;;;;3.73;2.50;;;7.30;99.90;;;;;;2084706;28;20223;-67
2023/04/27 01:25:19;;;;;;;3.13;2.47;;;7.30;99.90;;;;;;2087539;28;20290;-67
2023/04/27 01:26:21;;;;;;;4.80;2.70;;;7.30;99.90;;;;;;2096339;28;20278;-67
2023/04/27 01:27:22;;;;;;;3.78;2.25;;;7.40;99.90;;;;;;2083020;28;20262;-67
2023/04/27 01:28:23;;;;;;;5.10;2.80;;;7.40;99.90;;;;;;2067253;28;20229;-67
2023/04/27 01:29:24;;;;;;;2.27;1.90;;;7.40;99.90;;;;;;2063665;28;20242;-67
2023/04/27 01:30:27;;;;;;;6.93;2.60;;;7.50;99.90;;;;;;2088367;28;20374;-67
2023/04/27 01:31:28;;;;;;;3.05;2.40;;;7.50;99.90;;;;;;2086080;28;20231;-68
2023/04/27 01:32:30;;;;;;;3.92;2.60;;;7.40;99.90;;;;;;2084495;28;20228;-72
2023/04/27 01:33:31;;;;;;;4.70;2.78;;;7.30;99.90;;;;;;2082120;28;20594;-67
2023/04/27 01:34:32;;;;;;;5.28;2.90;;;7.30;99.90;;;;;;2088107;28;20222;-67
2023/04/27 01:35:33;;;;;;;4.28;3.00;;;7.30;99.90;;;;;;2090287;28;20243;-67
2023/04/27 01:36:35;;;;;;;6.17;4.20;;;7.30;99.90;;;;;;2093007;28;20231;-67
2023/04/27 01:37:36;;;;;;;3.67;2.50;;;7.30;99.90;;;;;;2092824;28;20242;-67
2023/04/27 01:38:37;;;;;;;4.05;2.60;;;7.30;99.90;;;;;;2096327;28;20228;-67
2023/04/27 01:39:39;;;;;;;4.70;2.70;;;7.40;99.90;;;;;;2097472;28;20231;-67
2023/04/27 01:40:40;;;;;;;4.38;2.38;;;7.40;99.90;;;;;;2093305;28;20322;-67
2023/04/27 01:41:40;;;;;;;5.37;2.60;;;7.30;99.90;;;;;;2092552;28;20227;-67
2023/04/27 01:42:42;;;;;;;6.45;2.58;;;7.30;99.90;;;;;;2081360;28;20228;-68
2023/04/27 01:43:42;;;;;;;4.37;2.83;;;7.30;99.90;;;;;;2088372;28;20256;-67
2023/04/27 01:44:43;;;;;;;5.37;2.23;;;7.30;99.90;;;;;;2084362;28;20224;-67
2023/04/27 01:45:44;;;;;;;3.73;2.53;;;7.30;99.90;;;;;;2080855;28;20241;-69
2023/04/27 01:46:44;;;;;;;3.10;2.70;;;7.30;99.90;;;;;;2092339;28;20231;-67
2023/04/27 01:47:45;;;;;;;2.87;2.23;;;7.30;99.90;;;;;;2090851;28;20248;-67
2023/04/27 01:48:46;;;;;;;5.83;2.57;;;7.30;99.90;;;;;;2092792;28;20238;-67
2023/04/27 01:49:47;;;;;;;4.90;2.70;;;7.30;99.90;;;;;;2092776;28;20280;-67
2023/04/27 01:50:47;;;;;;;3.70;2.50;;;7.20;99.90;;;;;;2093101;28;20255;-67
2023/04/27 01:51:48;;;;;;;3.20;2.53;;;7.30;99.90;;;;;;2096377;28;20234;-67
2023/04/27 01:52:51;;;;;;;3.53;2.60;;;7.30;99.90;;;;;;2093204;28;20242;-67
2023/04/27 01:53:52;;;;;;;4.85;2.63;;;7.30;99.90;;;;;;2092652;28;20321;-67
2023/04/27 01:54:52;;;;;;;4.53;2.50;;;7.40;99.90;;;;;;2093526;28;20293;-67
2023/04/27 01:55:53;;;;;;;3.43;2.40;;;7.30;99.90;;;;;;2090905;28;20885;-67
2023/04/27 01:56:54;;;;;;;3.07;2.47;;;7.30;99.90;;;;;;2090205;28;20223;-67
2023/04/27 01:57:56;;;;;;;4.90;2.80;;;7.30;99.90;;;;;;2093206;28;20310;-67
2023/04/27 01:58:57;;;;;;;3.25;2.25;;;7.20;99.90;;;;;;2092533;28;20977;-67
2023/04/27 01:59:58;;;;;;;4.87;2.57;;;7.30;99.90;;;;;;2083237;28;20226;-67
2023/04/27 02:00:59;;;;;;;3.53;2.70;;;7.30;99.90;;;;;;2085430;28;20228;-67
2023/04/27 02:02:02;;;;;;;3.95;2.38;;;7.30;99.90;;;;;;2096811;28;20226;-67
2023/04/27 02:03:04;;;;;;;4.38;2.72;;;7.20;99.90;;;;;;2092907;28;20215;-67
2023/04/27 02:04:06;;;;;;;3.35;2.40;;;7.30;99.90;;;;;;2084491;28;20842;-67
2023/04/27 02:05:08;;;;;;;2.97;2.40;;;7.30;99.90;;;;;;2072808;28;20197;-66
2023/04/27 02:06:09;;;;;;;5.20;2.67;;;7.30;99.90;;;;;;2084429;28;20863;-66
2023/04/27 02:07:10;;;;;;;3.93;2.57;;;7.30;99.90;;;;;;2092506;28;20192;-67
2023/04/27 02:08:11;;;;;;;4.93;2.83;;;7.30;99.90;;;;;;2084148;28;20189;-67
2023/04/27 02:09:12;;;;;;;3.50;2.53;;;7.30;99.90;;;;;;2072629;28;20214;-66
2023/04/27 02:10:13;;;;;;;4.18;3.20;;;7.20;99.90;;;;;;2075901;28;20280;-69
2023/04/27 02:11:14;;;;;;;5.87;4.33;;;7.30;99.90;;;;;;2075484;28;20239;-66
2023/04/27 02:12:15;;;;;;;4.35;2.65;;;7.20;99.90;;;;;;2086309;28;20210;-66
2023/04/27 02:13:18;;;;;;;5.00;2.67;;;7.20;99.90;;;;;;2096990;28;20192;-66
2023/04/27 02:14:19;;;;;;;3.72;2.65;;;7.20;99.90;;;;;;2096061;28;20193;-66
2023/04/27 02:15:20;;;;;;;4.00;2.63;;;7.20;99.90;;;;;;2091705;28;20267;-68
2023/04/27 02:16:21;;;;;;;7.60;3.50;;;7.30;99.90;;;;;;2086259;28;20276;-67
2023/04/27 02:17:22;;;;;;;4.13;2.83;;;7.30;99.90;;;;;;2092435;28;20232;-66
2023/04/27 02:18:23;;;;;;;3.57;2.40;;;7.30;99.90;;;;;;2084175;28;20315;-67
2023/04/27 02:19:25;;;;;;;4.80;3.13;;;7.30;99.90;;;;;;2068275;28;20472;-67
2023/04/27 02:20:29;;;;;;;4.55;2.80;;;7.30;99.90;;;;;;2075915;28;20730;-66
2023/04/27 02:21:31;;;;;;;3.88;2.40;;;7.40;99.90;;;;;;2091906;28;20293;-67
2023/04/27 02:22:32;;;;;;;3.97;2.72;;;7.40;99.90;;;;;;2091975;28;20219;-66
2023/04/27 02:23:34;;;;;;;2.92;2.42;;;7.20;99.90;;;;;;2083811;28;20299;-66
2023/04/27 02:24:35;;;;;;;4.53;2.67;;;7.20;99.90;;;;;;2083400;28;20232;-66
2023/04/27 02:25:37;;;;;;;4.18;3.15;;;7.30;99.90;;;;;;2076523;28;20224;-66
2023/04/27 02:26:37;;;;;;;6.03;3.00;;;7.40;99.90;;;;;;2076123;28;20320;-67
2023/04/27 02:27:40;;;;;;;4.03;2.92;;;7.40;99.90;;;;;;2077248;28;20251;-67
2023/04/27 02:28:41;;;;;;;3.88;3.05;;;7.30;99.90;;;;;;2075479;28;20337;-66
2023/04/27 02:29:43;;;;;;;5.78;2.80;;;7.30;99.90;;;;;;2071764;28;20830;-66
2023/04/27 02:30:47;;;;;;;3.20;2.40;;;7.40;99.90;;;;;;2083918;28;20232;-66
2023/04/27 02:31:48;;;;;;;4.00;2.72;;;7.40;99.90;;;;;;2094895;28;20306;-67
2023/04/27 02:32:50;;;;;;;3.93;2.40;;;7.40;99.90;;;;;;2083398;28;20926;-66
2023/04/27 02:33:50;;;;;;;3.10;2.40;;;7.40;99.90;;;;;;2083938;28;20302;-67
2023/04/27 02:34:51;;;;;;;5.40;2.87;;;7.50;99.90;;;;;;2092151;28;20223;-66
2023/04/27 02:35:52;;;;;;;3.93;2.93;;;7.50;99.90;;;;;;2079969;28;20267;-66
2023/04/27 02:36:53;;;;;;;4.97;2.87;;;7.50;99.90;;;;;;2071429;28;20791;-66
2023/04/27 02:37:53;;;;;;;4.17;2.30;;;7.50;99.90;;;;;;2070865;28;20229;-66
2023/04/27 02:38:55;;;;;;;5.17;2.50;;;7.40;99.90;;;;;;2071901;28;20308;-66
2023/04/27 02:39:56;;;;;;;3.67;2.60;;;7.40;99.90;;;;;;2071650;28;20719;-66
2023/04/27 02:40:57;;;;;;;3.20;2.63;;;7.40;99.90;;;;;;2071273;28;20650;-66
2023/04/27 02:41:58;;;;;;;5.40;3.00;;;7.40;99.90;;;;;;2087968;28;20266;-67
2023/04/27 02:42:58;;;;;;;4.00;2.80;;;7.50;99.90;;;;;;2087763;28;20232;-66
2023/04/27 02:44:01;;;;;;;3.70;2.60;;;7.50;99.90;;;;;;2087902;28;20279;-67
2023/04/27 02:45:03;;;;;;;5.57;3.30;;;7.50;99.90;;;;;;2095344;28;20231;-68
2023/04/27 02:46:04;;;;;;;4.20;2.92;;;7.40;99.90;;;;;;2096758;28;20200;-66
2023/04/27 02:47:05;;;;;;;3.72;2.67;;;7.40;99.90;;;;;;2086407;28;20211;-66
2023/04/27 02:48:06;;;;;;;6.40;3.10;;;7.40;99.90;;;;;;2082876;28;20182;-66
2023/04/27 02:49:07;;;;;;;5.17;2.67;;;7.40;99.90;;;;;;2088241;28;20235;-67
2023/04/27 02:50:09;;;;;;;4.53;2.90;;;7.30;99.90;;;;;;2094251;28;20187;-66
2023/04/27 02:51:11;;;;;;;4.90;2.83;;;7.30;99.90;;;;;;2088265;28;20824;-67
2023/04/27 02:52:12;;;;;;;4.63;2.67;;;7.30;99.90;;;;;;2088505;28;20180;-67
2023/04/27 02:53:13;;;;;;;3.87;2.80;;;7.40;99.90;;;;;;2075399;28;20208;-66
2023/04/27 02:54:15;;;;;;;5.22;2.85;;;7.40;99.90;;;;;;2084864;28;20657;-66
2023/04/27 02:55:16;;;;;;;5.28;3.30;;;7.40;99.90;;;;;;2084794;28;20220;-66
2023/04/27 02:56:16;;;;;;;4.75;3.30;;;7.40;99.90;;;;;;2071453;28;20190;-67
2023/04/27 02:57:17;;;;;;;4.30;2.90;;;7.40;99.90;;;;;;2074383;28;20196;-66
2023/04/27 02:58:18;;;;;;;7.47;3.27;;;7.40;99.90;;;;;;2083114;28;20184;-67
2023/04/27 02:59:20;;;;;;;3.85;2.78;;;7.40;99.90;;;;;;2065445;28;20214;-67
2023/04/27 03:00:20;;;;;;;4.32;3.08;;;7.40;99.90;;;;;;2070326;28;20675;-71
2023/04/27 03:01:24;;;;;;;5.27;2.67;;;7.40;99.90;;;;;;2079716;28;20308;-68
2023/04/27 03:02:25;;;;;;;4.05;2.92;;;7.30;99.90;;;;;;2073689;28;20610;-68
2023/04/27 03:03:26;;;;;;;5.13;2.60;;;7.40;99.90;;;;;;2078808;28;20232;-66
2023/04/27 03:04:27;;;;;;;3.87;2.93;;;7.30;99.90;;;;;;2079067;28;20266;-68
2023/04/27 03:05:27;;;;;;;4.00;2.97;;;7.30;99.90;;;;;;2077443;28;20595;-68
2023/04/27 03:06:28;;;;;;;3.27;2.70;;;7.30;99.90;;;;;;2094100;28;20287;-65
2023/04/27 03:07:30;;;;;;;6.30;3.13;;;7.30;99.90;;;;;;2085618;28;20235;-66
2023/04/27 03:08:32;;;;;;;4.75;2.97;;;7.40;99.90;;;;;;2087910;28;20907;-66
2023/04/27 03:09:33;;;;;;;5.07;3.38;;;7.30;99.90;;;;;;2079131;28;20661;-66
2023/04/27 03:10:34;;;;;;;4.77;2.77;;;7.20;99.90;;;;;;2079662;28;20240;-66
2023/04/27 03:11:37;;;;;;;4.17;2.50;;;7.20;99.90;;;;;;2096262;28;20223;-66
2023/04/27 03:12:37;;;;;;;3.58;2.95;;;7.10;99.90;;;;;;2086749;28;20223;-67
2023/04/27 03:13:41;;;;;;;4.40;2.53;;;7.10;99.90;;;;;;2086258;28;20326;-66
2023/04/27 03:14:41;;;;;;;6.28;2.97;;;7.10;99.90;;;;;;2087797;28;20707;-67
2023/04/27 03:15:42;;;;;;;3.20;2.87;;;7.20;99.90;;;;;;2073469;28;20254;-66
2023/04/27 03:16:43;;;;;;;4.67;2.93;;;7.30;99.90;;;;;;2074553;28;20224;-66
2023/04/27 03:17:43;;;;;;;3.77;2.77;;;7.30;99.90;;;;;;2087103;28;20243;-66
2023/04/27 03:18:44;;;;;;;5.00;2.67;;;7.40;99.90;;;;;;2087418;28;20239;-66
2023/04/27 03:19:47;;;;;;;4.57;2.33;;;7.40;99.90;;;;;;2076252;28;20233;-66
2023/04/27 03:20:48;;;;;;;5.47;2.70;;;7.50;99.90;;;;;;2074685;28;20474;-66
2023/04/27 03:21:49;;;;;;;4.13;2.87;;;7.50;99.90;;;;;;2089472;28;20223;-66
2023/04/27 03:22:50;;;;;;;4.40;2.73;;;7.40;99.90;;;;;;2089407;28;20339;-66
2023/04/27 03:23:50;;;;;;;8.23;2.97;;;7.40;99.90;;;;;;2079349;28;20216;-67
2023/04/27 03:24:52;;;;;;;4.20;2.90;;;7.30;99.90;;;;;;2086408;28;20230;-66
2023/04/27 03:25:54;;;;;;;4.05;2.95;;;7.40;99.90;;;;;;2071422;28;20606;-66
2023/04/27 03:26:55;;;;;;;3.63;3.25;;;7.40;99.90;;;;;;2079187;28;20818;-66
2023/04/27 03:27:56;;;;;;;4.73;2.93;;;7.40;99.90;;;;;;2087623;28;20227;-66
2023/04/27 03:28:57;;;;;;;4.00;2.83;;;7.40;99.90;;;;;;2087055;28;20220;-66
2023/04/27 03:29:57;;;;;;;4.73;2.90;;;7.40;99.90;;;;;;2087920;28;20307;-66
2023/04/27 03:30:58;;;;;;;3.43;2.70;;;7.40;99.90;;;;;;2079181;28;20232;-66
2023/04/27 03:31:59;;;;;;;3.73;2.50;;;7.40;99.90;;;;;;2077368;28;20229;-66
2023/04/27 03:33:00;;;;;;;5.38;3.10;;;7.40;99.90;;;;;;2091995;28;20564;-66
2023/04/27 03:34:02;;;;;;;3.83;2.73;;;7.50;99.90;;;;;;2092871;28;20226;-67
2023/04/27 03:35:05;;;;;;;3.67;2.88;;;7.40;99.90;;;;;;2078577;28;20224;-66
2023/04/27 03:36:09;;;;;;;4.40;3.15;;;7.40;99.90;;;;;;2078773;28;20263;-66
2023/04/27 03:37:09;;;;;;;7.43;3.40;;;7.30;99.90;;;;;;2080190;28;20177;-68
2023/04/27 03:38:10;;;;;;;4.37;2.77;;;7.30;99.90;;;;;;2075336;28;20233;-66
2023/04/27 03:39:11;;;;;;;5.07;3.00;;;7.30;99.90;;;;;;2071819;28;20204;-66
2023/04/27 03:40:13;;;;;;;5.63;2.93;;;7.30;99.90;;;;;;2074077;28;20216;-66
2023/04/27 03:41:14;;;;;;;3.95;3.00;;;7.30;99.90;;;;;;2087174;28;20195;-66
2023/04/27 03:42:16;;;;;;;5.57;3.00;;;7.40;99.90;;;;;;2081357;28;20632;-66
2023/04/27 03:43:19;;;;;;;3.75;2.80;;;7.50;99.90;;;;;;2074517;28;20197;-66
2023/04/27 03:44:20;;;;;;;4.97;2.67;;;7.50;99.90;;;;;;2078688;28;20561;-66
2023/04/27 03:45:21;;;;;;;7.15;2.88;;;7.50;99.90;;;;;;2076591;28;20267;-66
2023/04/27 03:46:22;;;;;;;4.82;2.90;;;7.50;99.90;;;;;;2082908;28;20281;-66
2023/04/27 03:47:23;;;;;;;5.68;2.92;;;7.40;99.90;;;;;;2081636;28;20259;-68
2023/04/27 03:48:23;;;;;;;3.23;2.50;;;7.30;99.90;;;;;;2087192;28;20234;-66
2023/04/27 03:49:24;;;;;;;3.67;2.90;;;7.30;99.90;;;;;;2086842;28;20232;-66
2023/04/27 03:50:25;;;;;;;4.93;2.50;;;7.30;99.90;;;;;;2076772;28;20716;-66
2023/04/27 03:51:26;;;;;;;3.37;2.70;;;7.40;99.90;;;;;;2082649;28;20233;-66
2023/04/27 03:52:27;;;;;;;6.50;3.07;;;7.40;99.90;;;;;;2091092;28;20259;-66
2023/04/27 03:53:27;;;;;;;4.53;2.40;;;7.50;99.90;;;;;;2070932;28;20475;-66
2023/04/27 03:54:30;;;;;;;4.37;2.80;;;7.50;99.90;;;;;;2062992;28;20241;-66
2023/04/27 03:55:31;;;;;;;3.90;2.50;;;7.50;99.90;;;;;;2082958;28;20237;-66
2023/04/27 03:56:32;;;;;;;3.30;2.78;;;7.60;99.90;;;;;;2092372;28;20254;-66
2023/04/27 03:57:34;;;;;;;3.33;2.60;;;7.60;99.90;;;;;;2090481;28;20272;-66
2023/04/27 03:58:36;;;;;;;4.10;2.80;;;7.60;99.90;;;;;;2079181;28;20232;-66
2023/04/27 03:59:36;;;;;;;6.70;3.43;;;7.60;99.90;;;;;;2082445;28;20271;-67
2023/04/27 04:00:37;;;;;;;3.40;2.73;;;7.60;99.90;;;;;;2091707;28;20235;-66
2023/04/27 04:01:39;;;;;;;5.90;3.10;;;7.60;99.90;;;;;;2090129;28;20319;-67
2023/04/27 04:02:40;;;;;;;5.37;2.73;;;7.70;99.90;;;;;;2087230;28;20228;-67
2023/04/27 04:03:41;;;;;;;4.43;2.40;;;7.60;99.90;;;;;;2091533;28;20275;-67
2023/04/27 04:04:43;;;;;;;4.20;2.72;;;7.60;99.90;;;;;;2082706;28;20225;-66
2023/04/27 04:05:45;;;;;;;3.45;2.83;;;7.60;99.90;;;;;;2082897;28;20342;-67
2023/04/27 04:06:46;;;;;;;3.55;2.72;;;7.60;99.90;;;;;;2087723;28;20754;-66
2023/04/27 04:07:47;;;;;;;3.93;2.73;;;7.50;99.90;;;;;;2091298;28;20228;-67
2023/04/27 04:08:47;;;;;;;6.83;3.07;;;7.50;99.90;;;;;;2075076;28;20706;-67
2023/04/27 04:09:48;;;;;;;4.57;2.70;;;7.60;99.90;;;;;;2075388;28;20279;-66
2023/04/27 04:10:50;;;;;;;4.10;2.87;;;7.50;99.90;;;;;;2088880;28;20266;-66
2023/04/27 04:11:52;;;;;;;4.88;3.45;;;7.40;99.90;;;;;;2085810;28;20273;-67
2023/04/27 04:12:53;;;;;;;5.85;4.10;;;7.40;99.90;;;;;;2094970;28;20323;-66
2023/04/27 04:13:54;;;;;;;4.95;4.05;;;7.40;99.90;;;;;;2091660;28;20326;-67
2023/04/27 04:14:55;;;;;;;6.03;3.53;;;7.40;99.90;;;;;;2094468;28;20284;-66
2023/04/27 04:16:03;;;;;;;5.93;4.00;;;7.40;99.90;;;;;;2088775;28;20228;-67
2023/04/27 04:17:04;;;;;;;6.68;4.30;;;7.50;99.90;;;;;;2081217;28;20274;-68
2023/04/27 04:18:04;;;;;;;4.33;3.50;;;7.60;99.90;;;;;;2066302;28;20759;-68
2023/04/27 04:19:07;;;;;;;4.63;3.10;;;7.60;99.90;;;;;;2077897;28;20252;-67
2023/04/27 04:20:10;;;;;;;4.35;2.92;;;7.60;99.90;;;;;;2095771;28;20183;-67
2023/04/27 04:21:10;;;;;;;4.45;3.10;;;7.60;99.90;;;;;;2082960;28;20185;-67
2023/04/27 04:22:11;;;;;;;6.43;2.60;;;7.60;99.90;;;;;;2073724;28;20221;-67
2023/04/27 04:23:12;;;;;;;5.40;2.93;;;7.60;99.90;;;;;;2073164;28;20290;-67
2023/04/27 04:24:14;;;;;;;4.13;3.00;;;7.60;99.90;;;;;;2074425;28;20190;-67
2023/04/27 04:25:15;;;;;;;6.30;2.50;;;7.60;99.90;;;;;;2078291;28;20225;-67
2023/04/27 04:26:16;;;;;;;3.73;2.63;;;7.60;99.90;;;;;;2072478;28;20571;-67
2023/04/27 04:27:16;;;;;;;4.80;2.83;;;7.70;99.90;;;;;;2071868;28;20247;-67
2023/04/27 04:28:17;;;;;;;3.03;2.43;;;7.70;99.90;;;;;;2076783;28;20683;-67
2023/04/27 04:29:18;;;;;;;3.47;2.60;;;7.80;99.90;;;;;;2088639;28;20204;-67
2023/04/27 04:30:19;;;;;;;4.77;3.47;;;7.80;99.90;;;;;;2084802;28;20192;-67
2023/04/27 04:31:20;;;;;;;5.88;3.00;;;7.80;99.90;;;;;;2084563;28;20184;-67
2023/04/27 04:32:21;;;;;;;3.80;3.20;;;7.80;99.90;;;;;;2092884;28;20663;-67
2023/04/27 04:33:23;;;;;;;5.20;2.83;;;7.90;99.90;;;;;;2089277;28;20238;-67
2023/04/27 04:34:23;;;;;;;4.47;2.90;;;7.90;99.90;;;;;;2092388;28;20254;-67
2023/04/27 04:35:24;;;;;;;4.60;2.80;;;7.90;99.90;;;;;;2084501;28;20298;-67
2023/04/27 04:36:25;;;;;;;4.47;3.03;;;7.90;99.90;;;;;;2076069;28;20229;-67
2023/04/27 04:37:26;;;;;;;5.20;3.20;;;7.80;99.90;;;;;;2083467;28;20235;-67
2023/04/27 04:38:27;;;;;;;6.03;2.85;;;7.80;99.90;;;;;;2085516;28;20290;-67
2023/04/27 04:39:32;;;;;;;4.30;2.92;;;7.80;99.90;;;;;;2075593;28;20769;-67
2023/04/27 04:40:32;;;;;;;3.92;2.83;;;7.90;99.90;;;;;;2087008;28;20801;-67
2023/04/27 04:41:33;;;;;;;4.53;3.00;;;7.90;99.90;;;;;;2081835;28;20231;-67
2023/04/27 04:42:36;;;;;;;6.77;3.03;;;7.90;99.90;;;;;;2084044;28;20252;-67
2023/04/27 04:43:37;;;;;;;7.55;3.58;;;7.90;99.90;;;;;;2084359;28;20275;-66
2023/04/27 04:44:38;;;;;;;3.27;2.77;;;7.90;99.90;;;;;;2076181;28;20751;-67
2023/04/27 04:45:38;;;;;;;5.23;3.03;;;7.90;99.90;;;;;;2075913;28;20233;-67
2023/04/27 04:46:39;;;;;;;4.77;2.90;;;7.90;99.90;;;;;;2083774;28;20675;-68
2023/04/27 04:47:40;;;;;;;5.13;3.10;;;7.90;99.90;;;;;;2092558;28;20233;-67
2023/04/27 04:48:41;;;;;;;4.10;2.97;;;7.90;99.90;;;;;;2083692;28;20219;-67
2023/04/27 04:49:42;;;;;;;6.53;3.17;;;7.90;99.90;;;;;;2084130;28;20227;-67
2023/04/27 04:50:42;;;;;;;3.30;2.80;;;7.90;99.90;;;;;;2075824;28;20280;-67
2023/04/27 04:51:44;;;;;;;5.13;3.57;;;7.90;99.90;;;;;;2067672;28;20235;-67
2023/04/27 04:52:45;;;;;;;5.00;3.40;;;7.90;99.90;;;;;;2076071;28;20263;-67
2023/04/27 04:53:45;;;;;;;6.17;3.30;;;8.00;99.90;;;;;;2075754;28;20631;-67
2023/04/27 04:54:46;;;;;;;6.20;3.50;;;8.00;99.90;;;;;;2079977;28;20223;-67
2023/04/27 04:55:48;;;;;;;3.57;2.60;;;8.00;99.90;;;;;;2080289;28;20220;-67
2023/04/27 04:56:49;;;;;;;6.38;3.50;;;7.90;99.90;;;;;;2088321;28;20361;-67
2023/04/27 04:57:50;;;;;;;4.60;3.40;;;8.00;99.90;;;;;;2089077;28;20273;-67
2023/04/27 04:58:50;;;;;;;3.83;3.07;;;8.10;99.90;;;;;;2071797;28;20274;-67
2023/04/27 04:59:51;;;;;;;5.10;3.13;;;8.10;99.90;;;;;;2071722;28;20227;-67
2023/04/27 05:00:52;;;;;;;5.67;3.23;;;8.10;99.90;;;;;;2088822;28;20702;-67
2023/04/27 05:01:54;;;;;;;4.63;2.90;;;8.10;99.90;;;;;;2092699;28;20220;-68
2023/04/27 05:02:55;;;;;;;4.47;3.17;;;8.10;99.90;;;;;;2078476;28;20226;-67
2023/04/27 05:03:55;;;;;;;5.73;3.73;;;8.20;99.90;;;;;;2079564;28;20684;-67
2023/04/27 05:04:56;;;;;;;7.20;4.50;;;8.20;99.90;;;;;;2079625;28;20283;-67
2023/04/27 05:05:58;;;;;;;6.50;4.20;;;8.20;99.90;;;;;;2077719;28;20309;-67
2023/04/27 05:06:59;;;;;;;11.13;4.90;;;8.30;99.90;;;;;;2088010;28;20684;-67
2023/04/27 05:07:59;;;;;;;6.43;4.30;;;8.30;99.90;;;;;;2097035;28;20314;-67
2023/04/27 05:09:00;;;;;;;7.30;4.33;;;8.20;99.90;;;;;;2082314;28;20230;-68
2023/04/27 05:10:02;;;;;;;8.52;4.90;;;8.20;99.90;;;;;;2078967;28;20694;-66
2023/04/27 05:11:03;;;;;;;6.20;3.75;;;8.20;99.90;;;;;;2078843;28;20177;-67
2023/04/27 05:12:04;;;;;;;9.30;3.43;;;8.10;99.90;;;;;;2093102;28;20282;-67
2023/04/27 05:13:05;;;;;;;6.35;3.63;;;8.10;99.90;;;;;;2095144;28;20560;-67
2023/04/27 05:14:06;;;;;;;6.53;4.63;;;8.10;99.90;;;;;;2088397;28;20191;-68
2023/04/27 05:15:07;;;;;;;12.23;6.43;;;8.20;99.90;;;;;;2080160;28;20223;-67
2023/04/27 05:16:08;;;;;;;10.90;5.68;;;8.20;99.90;;;;;;2079972;28;20187;-67
2023/04/27 05:17:08;;;;;;;9.13;4.43;;;8.20;99.90;;;;;;2089656;28;20177;-68
2023/04/27 05:18:10;;;;;;;9.00;4.40;;;8.20;99.90;;;;;;2095511;28;20224;-68
2023/04/27 05:19:10;;;;;;;5.38;3.83;;;8.20;99.90;;;;;;2096058;28;20852;-68
2023/04/27 05:20:12;;;;;;;4.97;2.88;;;8.30;99.90;;;;;;2096875;28;20187;-67
2023/04/27 05:21:14;;;;;;;3.80;3.00;;;8.30;99.90;;;;;;2087901;28;20692;-68
2023/04/27 05:22:15;;;;;;;9.70;3.15;;;8.20;99.90;;;;;;2065855;28;20264;-67
2023/04/27 05:23:16;;;;;;;5.97;3.10;;;8.20;99.90;;;;;;2054231;28;20193;-67